sensor_id;sensor_type;location;lat;lon;timestamp;temperature;humidity
15916;DHT22;8057;47.830;-3.870;2024-01-15T00:01:43;5.00;99.90
15916;DHT22;8057;47.830;-3.870;2024-01-15T00:05:52;4.90;99.90
15916;DHT22;8057;47.830;-3.870;2024-01-15T00:10:03;4.90;99.90
15916;DHT22;8057;47.830;-3.870;2024-01-15T00:14:13;4.90;99.90
15916;DHT22;8057;47.830;-3.870;2024-01-15T00:18:27;4.90;99.90
15916;DHT22;8057;47.830;-3.870;2024-01-15T00:22:36;4.90;99.90
15916;DHT22;8057;47.830;-3.870;2024-01-15T00:26:47;4.80;99.90
15916;DHT22;8057;47.830;-3.870;2024-01-15T00:30:56;4.80;99.90
15916;DHT22;8057;47.830;-3.870;2024-01-15T00:35:05;4.90;99.90
15916;DHT22;8057;47.830;-3.870;2024-01-15T00:39:14;4.90;99.90
15916;DHT22;8057;47.830;-3.870;2024-01-15T00:43:25;4.90;99.90
15916;DHT22;8057;47.830;-3.870;2024-01-15T00:47:34;4.90;99.90
15916;DHT22;8057;47.830;-3.870;2024-01-15T00:51:43;4.90;99.90
15916;DHT22;8057;47.830;-3.870;2024-01-15T00:55:52;4.90;99.90
15916;DHT22;8057;47.830;-3.870;2024-01-15T01:00:04;5.00;99.90
15916;DHT22;8057;47.830;-3.870;2024-01-15T01:04:14;4.90;99.90
15916;DHT22;8057;47.830;-3.870;2024-01-15T01:08:23;4.90;99.90
15916;DHT22;8057;47.830;-3.870;2024-01-15T01:12:32;4.90;99.90
15916;DHT22;8057;47.830;-3.870;2024-01-15T01:16:42;4.90;99.90
15916;DHT22;8057;47.830;-3.870;2024-01-15T01:20:51;5.00;99.90
15916;DHT22;8057;47.830;-3.870;2024-01-15T01:25:00;4.90;99.90
15916;DHT22;8057;47.830;-3.870;2024-01-15T01:29:09;4.90;99.90
15916;DHT22;8057;47.830;-3.870;2024-01-15T01:33:20;4.90;99.90
15916;DHT22;8057;47.830;-3.870;2024-01-15T01:37:29;4.90;99.90
15916;DHT22;8057;47.830;-3.870;2024-01-15T01:41:38;4.90;99.90
15916;DHT22;8057;47.830;-3.870;2024-01-15T01:45:47;4.80;99.90
15916;DHT22;8057;47.830;-3.870;2024-01-15T01:49:58;4.80;99.90
15916;DHT22;8057;47.830;-3.870;2024-01-15T01:54:08;4.80;99.90
15916;DHT22;8057;47.830;-3.870;2024-01-15T01:58:20;4.80;99.90
15916;DHT22;8057;47.830;-3.870;2024-01-15T02:02:29;4.80;99.90
15916;DHT22;8057;47.830;-3.870;2024-01-15T02:06:39;4.70;99.90
15916;DHT22;8057;47.830;-3.870;2024-01-15T02:10:48;4.80;99.90
15916;DHT22;8057;47.830;-3.870;2024-01-15T02:14:57;4.80;99.90
15916;DHT22;8057;47.830;-3.870;2024-01-15T02:19:06;4.80;99.90
15916;DHT22;8057;47.830;-3.870;2024-01-15T02:23:17;4.80;99.90
15916;DHT22;8057;47.830;-3.870;2024-01-15T02:27:26;4.70;99.90
15916;DHT22;8057;47.830;-3.870;2024-01-15T02:31:35;4.70;99.90
15916;DHT22;8057;47.830;-3.870;2024-01-15T02:35:45;4.80;99.90
15916;DHT22;8057;47.830;-3.870;2024-01-15T02:39:59;4.80;99.90
15916;DHT22;8057;47.830;-3.870;2024-01-15T02:44:08;4.80;99.90
15916;DHT22;8057;47.830;-3.870;2024-01-15T02:48:16;4.70;99.90
15916;DHT22;8057;47.830;-3.870;2024-01-15T02:52:26;4.80;99.90
15916;DHT22;8057;47.830;-3.870;2024-01-15T02:56:36;4.80;99.90
15916;DHT22;8057;47.830;-3.870;2024-01-15T03:00:45;4.80;99.90
15916;DHT22;8057;47.830;-3.870;2024-01-15T03:04:54;4.80;99.90
15916;DHT22;8057;47.830;-3.870;2024-01-15T03:09:04;4.70;99.90
15916;DHT22;8057;47.830;-3.870;2024-01-15T03:13:14;4.80;99.90
15916;DHT22;8057;47.830;-3.870;2024-01-15T03:17:23;4.80;99.90
15916;DHT22;8057;47.830;-3.870;2024-01-15T03:21:32;4.80;99.90
15916;DHT22;8057;47.830;-3.870;2024-01-15T03:25:41;4.80;99.90
15916;DHT22;8057;47.830;-3.870;2024-01-15T03:29:51;4.80;99.90
15916;DHT22;8057;47.830;-3.870;2024-01-15T03:34:00;4.80;99.90
15916;DHT22;8057;47.830;-3.870;2024-01-15T03:38:10;4.80;99.90
15916;DHT22;8057;47.830;-3.870;2024-01-15T03:42:19;4.80;99.90
15916;DHT22;8057;47.830;-3.870;2024-01-15T03:46:29;4.70;99.90
15916;DHT22;8057;47.830;-3.870;2024-01-15T03:50:38;4.70;99.90
15916;DHT22;8057;47.830;-3.870;2024-01-15T03:54:47;4.80;99.90
15916;DHT22;8057;47.830;-3.870;2024-01-15T03:58:56;4.80;99.90
15916;DHT22;8057;47.830;-3.870;2024-01-15T04:03:07;4.80;99.90
15916;DHT22;8057;47.830;-3.870;2024-01-15T04:07:16;4.70;99.90
15916;DHT22;8057;47.830;-3.870;2024-01-15T04:11:25;4.80;99.90
15916;DHT22;8057;47.830;-3.870;2024-01-15T04:15:34;4.80;99.90
15916;DHT22;8057;47.830;-3.870;2024-01-15T04:19:45;4.80;99.90
15916;DHT22;8057;47.830;-3.870;2024-01-15T04:23:55;4.70;99.90
15916;DHT22;8057;47.830;-3.870;2024-01-15T04:28:04;4.70;99.90
15916;DHT22;8057;47.830;-3.870;2024-01-15T04:32:13;4.80;99.90
15916;DHT22;8057;47.830;-3.870;2024-01-15T04:36:24;4.80;99.90
15916;DHT22;8057;47.830;-3.870;2024-01-15T04:40:33;4.80;99.90
15916;DHT22;8057;47.830;-3.870;2024-01-15T04:44:42;4.70;99.90
15916;DHT22;8057;47.830;-3.870;2024-01-15T04:48:51;4.70;99.90
15916;DHT22;8057;47.830;-3.870;2024-01-15T04:53:01;4.80;99.90
15916;DHT22;8057;47.830;-3.870;2024-01-15T04:57:10;4.90;99.90
15916;DHT22;8057;47.830;-3.870;2024-01-15T05:01:19;4.80;99.90
15916;DHT22;8057;47.830;-3.870;2024-01-15T05:05:29;4.80;99.90
15916;DHT22;8057;47.830;-3.870;2024-01-15T05:09:40;4.80;99.90
15916;DHT22;8057;47.830;-3.870;2024-01-15T05:13:49;4.80;99.90
15916;DHT22;8057;47.830;-3.870;2024-01-15T05:17:57;4.80;99.90
15916;DHT22;8057;47.830;-3.870;2024-01-15T05:22:07;4.90;99.90
15916;DHT22;8057;47.830;-3.870;2024-01-15T05:26:17;4.80;99.90
15916;DHT22;8057;47.830;-3.870;2024-01-15T05:30:26;4.90;99.90
15916;DHT22;8057;47.830;-3.870;2024-01-15T05:34:35;4.90;99.90
15916;DHT22;8057;47.830;-3.870;2024-01-15T05:38:44;4.90;99.90
15916;DHT22;8057;47.830;-3.870;2024-01-15T05:42:54;4.90;99.90
15916;DHT22;8057;47.830;-3.870;2024-01-15T05:47:04;4.90;99.90
15916;DHT22;8057;47.830;-3.870;2024-01-15T05:51:13;4.80;99.90
15916;DHT22;8057;47.830;-3.870;2024-01-15T05:55:22;4.90;99.90
15916;DHT22;8057;47.830;-3.870;2024-01-15T05:59:33;4.90;99.90
15916;DHT22;8057;47.830;-3.870;2024-01-15T06:03:43;4.90;99.90
15916;DHT22;8057;47.830;-3.870;2024-01-15T06:07:52;4.90;99.90
15916;DHT22;8057;47.830;-3.870;2024-01-15T06:12:01;4.90;99.90
15916;DHT22;8057;47.830;-3.870;2024-01-15T06:16:15;5.00;99.90
15916;DHT22;8057;47.830;-3.870;2024-01-15T06:20:26;5.00;99.90
15916;DHT22;8057;47.830;-3.870;2024-01-15T06:24:35;4.90;99.90
15916;DHT22;8057;47.830;-3.870;2024-01-15T06:28:44;4.90;99.90
15916;DHT22;8057;47.830;-3.870;2024-01-15T06:32:55;4.90;99.90
15916;DHT22;8057;47.830;-3.870;2024-01-15T06:37:04;5.00;99.90
15916;DHT22;8057;47.830;-3.870;2024-01-15T06:41:13;5.00;99.90
15916;DHT22;8057;47.830;-3.870;2024-01-15T06:45:22;4.90;99.90
15916;DHT22;8057;47.830;-3.870;2024-01-15T06:49:32;4.90;99.90
15916;DHT22;8057;47.830;-3.870;2024-01-15T06:53:41;4.90;99.90
15916;DHT22;8057;47.830;-3.870;2024-01-15T06:57:50;4.90;99.90
15916;DHT22;8057;47.830;-3.870;2024-01-15T07:02:00;4.80;99.90
15916;DHT22;8057;47.830;-3.870;2024-01-15T07:06:10;4.80;99.90
15916;DHT22;8057;47.830;-3.870;2024-01-15T07:10:20;4.80;99.90
15916;DHT22;8057;47.830;-3.870;2024-01-15T07:14:28;4.90;99.90
15916;DHT22;8057;47.830;-3.870;2024-01-15T07:18:37;4.90;99.90
15916;DHT22;8057;47.830;-3.870;2024-01-15T07:22:48;4.90;99.90
15916;DHT22;8057;47.830;-3.870;2024-01-15T07:26:57;4.80;99.90
15916;DHT22;8057;47.830;-3.870;2024-01-15T07:31:06;4.90;99.90
15916;DHT22;8057;47.830;-3.870;2024-01-15T07:35:16;4.90;99.90
15916;DHT22;8057;47.830;-3.870;2024-01-15T07:39:27;4.90;99.90
15916;DHT22;8057;47.830;-3.870;2024-01-15T07:43:38;4.90;99.90
15916;DHT22;8057;47.830;-3.870;2024-01-15T07:47:47;4.80;99.90
15916;DHT22;8057;47.830;-3.870;2024-01-15T07:51:56;4.90;99.90
15916;DHT22;8057;47.830;-3.870;2024-01-15T07:56:07;4.90;99.90
15916;DHT22;8057;47.830;-3.870;2024-01-15T08:00:16;4.90;99.90
15916;DHT22;8057;47.830;-3.870;2024-01-15T08:04:25;4.90;99.90
15916;DHT22;8057;47.830;-3.870;2024-01-15T08:08:35;4.80;99.90
15916;DHT22;8057;47.830;-3.870;2024-01-15T08:12:45;4.90;99.90
15916;DHT22;8057;47.830;-3.870;2024-01-15T08:16:54;4.90;99.90
15916;DHT22;8057;47.830;-3.870;2024-01-15T08:21:04;5.00;99.90
15916;DHT22;8057;47.830;-3.870;2024-01-15T08:25:13;4.90;99.90
15916;DHT22;8057;47.830;-3.870;2024-01-15T08:29:23;4.90;99.90
15916;DHT22;8057;47.830;-3.870;2024-01-15T08:33:32;5.00;99.90
15916;DHT22;8057;47.830;-3.870;2024-01-15T08:37:41;5.10;99.90
15916;DHT22;8057;47.830;-3.870;2024-01-15T08:41:50;5.00;99.90
15916;DHT22;8057;47.830;-3.870;2024-01-15T08:46:01;5.00;99.90
15916;DHT22;8057;47.830;-3.870;2024-01-15T08:50:10;5.00;99.90
15916;DHT22;8057;47.830;-3.870;2024-01-15T08:54:19;5.10;99.90
15916;DHT22;8057;47.830;-3.870;2024-01-15T08:58:28;5.20;99.90
15916;DHT22;8057;47.830;-3.870;2024-01-15T09:02:38;5.20;99.90
15916;DHT22;8057;47.830;-3.870;2024-01-15T09:06:47;5.10;99.90
15916;DHT22;8057;47.830;-3.870;2024-01-15T09:10:56;5.20;99.90
15916;DHT22;8057;47.830;-3.870;2024-01-15T09:15:06;5.30;99.90
15916;DHT22;8057;47.830;-3.870;2024-01-15T09:19:17;5.40;99.90
15916;DHT22;8057;47.830;-3.870;2024-01-15T09:23:26;5.40;99.90
15916;DHT22;8057;47.830;-3.870;2024-01-15T09:27:36;5.40;99.90
15916;DHT22;8057;47.830;-3.870;2024-01-15T09:31:47;5.50;99.90
15916;DHT22;8057;47.830;-3.870;2024-01-15T09:36:00;5.60;99.90
15916;DHT22;8057;47.830;-3.870;2024-01-15T09:40:12;5.70;99.90
15916;DHT22;8057;47.830;-3.870;2024-01-15T09:44:24;5.70;99.90
15916;DHT22;8057;47.830;-3.870;2024-01-15T09:48:34;5.70;99.90
15916;DHT22;8057;47.830;-3.870;2024-01-15T09:52:45;5.70;99.90
15916;DHT22;8057;47.830;-3.870;2024-01-15T09:56:55;5.80;99.90
15916;DHT22;8057;47.830;-3.870;2024-01-15T10:01:04;5.80;99.90
15916;DHT22;8057;47.830;-3.870;2024-01-15T10:05:14;5.70;99.90
15916;DHT22;8057;47.830;-3.870;2024-01-15T10:09:25;5.80;99.90
15916;DHT22;8057;47.830;-3.870;2024-01-15T10:13:34;5.80;99.90
15916;DHT22;8057;47.830;-3.870;2024-01-15T10:17:47;5.90;99.90
15916;DHT22;8057;47.830;-3.870;2024-01-15T10:21:56;5.90;99.90
15916;DHT22;8057;47.830;-3.870;2024-01-15T10:26:06;5.90;99.90
15916;DHT22;8057;47.830;-3.870;2024-01-15T10:30:15;6.10;99.90
15916;DHT22;8057;47.830;-3.870;2024-01-15T10:34:25;6.20;99.90
15916;DHT22;8057;47.830;-3.870;2024-01-15T10:38:34;6.30;99.90
15916;DHT22;8057;47.830;-3.870;2024-01-15T10:42:44;6.20;99.90
15916;DHT22;8057;47.830;-3.870;2024-01-15T10:46:55;6.10;99.90
15916;DHT22;8057;47.830;-3.870;2024-01-15T10:51:06;6.10;99.90
15916;DHT22;8057;47.830;-3.870;2024-01-15T10:55:18;6.30;99.90
15916;DHT22;8057;47.830;-3.870;2024-01-15T10:59:29;6.60;99.90
15916;DHT22;8057;47.830;-3.870;2024-01-15T11:03:39;6.80;99.90
15916;DHT22;8057;47.830;-3.870;2024-01-15T11:07:48;6.90;99.90
15916;DHT22;8057;47.830;-3.870;2024-01-15T11:12:07;7.00;99.90
15916;DHT22;8057;47.830;-3.870;2024-01-15T11:16:18;7.20;99.90
15916;DHT22;8057;47.830;-3.870;2024-01-15T11:20:27;7.30;99.90
15916;DHT22;8057;47.830;-3.870;2024-01-15T11:24:37;7.30;99.90
15916;DHT22;8057;47.830;-3.870;2024-01-15T11:28:49;7.40;99.90
15916;DHT22;8057;47.830;-3.870;2024-01-15T11:32:59;7.40;99.90
15916;DHT22;8057;47.830;-3.870;2024-01-15T11:37:08;7.50;99.90
15916;DHT22;8057;47.830;-3.870;2024-01-15T11:41:18;7.60;99.90
15916;DHT22;8057;47.830;-3.870;2024-01-15T11:45:28;7.60;99.90
15916;DHT22;8057;47.830;-3.870;2024-01-15T11:50:10;7.60;99.90
15916;DHT22;8057;47.830;-3.870;2024-01-15T11:54:21;7.70;99.90
15916;DHT22;8057;47.830;-3.870;2024-01-15T11:58:33;7.80;99.90
15916;DHT22;8057;47.830;-3.870;2024-01-15T12:02:45;7.80;99.90
15916;DHT22;8057;47.830;-3.870;2024-01-15T12:06:56;8.00;99.90
15916;DHT22;8057;47.830;-3.870;2024-01-15T12:11:07;8.00;99.90
15916;DHT22;8057;47.830;-3.870;2024-01-15T12:15:20;8.00;99.90
15916;DHT22;8057;47.830;-3.870;2024-01-15T12:19:29;8.00;99.90
15916;DHT22;8057;47.830;-3.870;2024-01-15T12:23:40;8.00;99.90
15916;DHT22;8057;47.830;-3.870;2024-01-15T12:27:50;8.00;99.90
15916;DHT22;8057;47.830;-3.870;2024-01-15T12:31:59;8.00;99.90
15916;DHT22;8057;47.830;-3.870;2024-01-15T12:36:08;7.90;99.90
15916;DHT22;8057;47.830;-3.870;2024-01-15T12:40:22;8.00;99.90
15916;DHT22;8057;47.830;-3.870;2024-01-15T12:44:32;8.10;99.90
15916;DHT22;8057;47.830;-3.870;2024-01-15T12:48:43;8.10;99.90
15916;DHT22;8057;47.830;-3.870;2024-01-15T12:52:52;8.20;99.90
15916;DHT22;8057;47.830;-3.870;2024-01-15T12:57:02;8.30;99.90
15916;DHT22;8057;47.830;-3.870;2024-01-15T13:01:11;8.30;99.90
15916;DHT22;8057;47.830;-3.870;2024-01-15T13:05:21;8.40;99.90
15916;DHT22;8057;47.830;-3.870;2024-01-15T13:09:31;8.40;99.90
15916;DHT22;8057;47.830;-3.870;2024-01-15T13:13:42;8.60;99.90
15916;DHT22;8057;47.830;-3.870;2024-01-15T13:17:51;8.70;99.90
15916;DHT22;8057;47.830;-3.870;2024-01-15T13:21:59;8.60;99.90
15916;DHT22;8057;47.830;-3.870;2024-01-15T13:26:08;8.50;99.90
15916;DHT22;8057;47.830;-3.870;2024-01-15T13:30:19;8.40;99.90
15916;DHT22;8057;47.830;-3.870;2024-01-15T13:34:28;8.40;99.90
15916;DHT22;8057;47.830;-3.870;2024-01-15T13:38:37;8.50;99.90
15916;DHT22;8057;47.830;-3.870;2024-01-15T13:42:46;8.60;99.90
15916;DHT22;8057;47.830;-3.870;2024-01-15T13:46:57;8.50;99.90
15916;DHT22;8057;47.830;-3.870;2024-01-15T13:51:06;8.50;99.90
15916;DHT22;8057;47.830;-3.870;2024-01-15T13:55:15;8.40;99.90
15916;DHT22;8057;47.830;-3.870;2024-01-15T13:59:25;8.40;99.90
15916;DHT22;8057;47.830;-3.870;2024-01-15T14:03:35;8.50;99.90
15916;DHT22;8057;47.830;-3.870;2024-01-15T14:07:45;8.50;99.90
15916;DHT22;8057;47.830;-3.870;2024-01-15T14:11:54;8.40;99.90
15916;DHT22;8057;47.830;-3.870;2024-01-15T14:16:03;8.20;99.90
15916;DHT22;8057;47.830;-3.870;2024-01-15T14:20:14;8.00;99.90
15916;DHT22;8057;47.830;-3.870;2024-01-15T14:24:27;7.80;99.90
15916;DHT22;8057;47.830;-3.870;2024-01-15T14:28:36;7.60;99.90
15916;DHT22;8057;47.830;-3.870;2024-01-15T14:32:45;7.70;99.90
15916;DHT22;8057;47.830;-3.870;2024-01-15T14:36:56;7.80;99.90
15916;DHT22;8057;47.830;-3.870;2024-01-15T14:41:05;8.00;99.90
15916;DHT22;8057;47.830;-3.870;2024-01-15T14:45:14;7.90;99.90
15916;DHT22;8057;47.830;-3.870;2024-01-15T14:49:23;7.90;99.90
15916;DHT22;8057;47.830;-3.870;2024-01-15T14:53:33;7.90;99.90
15916;DHT22;8057;47.830;-3.870;2024-01-15T14:57:43;8.00;99.90
15916;DHT22;8057;47.830;-3.870;2024-01-15T15:01:51;8.10;99.90
15916;DHT22;8057;47.830;-3.870;2024-01-15T15:06:01;8.30;99.90
15916;DHT22;8057;47.830;-3.870;2024-01-15T15:10:12;8.30;99.90
15916;DHT22;8057;47.830;-3.870;2024-01-15T15:14:20;8.40;99.90
15916;DHT22;8057;47.830;-3.870;2024-01-15T15:18:29;8.30;99.90
15916;DHT22;8057;47.830;-3.870;2024-01-15T15:22:38;8.20;99.90
15916;DHT22;8057;47.830;-3.870;2024-01-15T15:26:49;8.00;99.90
15916;DHT22;8057;47.830;-3.870;2024-01-15T15:31:01;7.90;99.90
15916;DHT22;8057;47.830;-3.870;2024-01-15T15:35:10;7.80;99.90
15916;DHT22;8057;47.830;-3.870;2024-01-15T15:39:19;7.70;99.90
15916;DHT22;8057;47.830;-3.870;2024-01-15T15:43:30;7.50;99.90
15916;DHT22;8057;47.830;-3.870;2024-01-15T15:47:39;7.40;99.90
15916;DHT22;8057;47.830;-3.870;2024-01-15T15:51:48;7.40;99.90
15916;DHT22;8057;47.830;-3.870;2024-01-15T15:55:57;7.30;99.90
15916;DHT22;8057;47.830;-3.870;2024-01-15T16:00:09;7.20;99.90
15916;DHT22;8057;47.830;-3.870;2024-01-15T16:04:19;7.10;99.90
15916;DHT22;8057;47.830;-3.870;2024-01-15T16:08:28;7.10;99.90
15916;DHT22;8057;47.830;-3.870;2024-01-15T16:12:37;7.00;99.90
15916;DHT22;8057;47.830;-3.870;2024-01-15T16:16:48;6.90;99.90
15916;DHT22;8057;47.830;-3.870;2024-01-15T16:21:18;6.80;99.90
15916;DHT22;8057;47.830;-3.870;2024-01-15T16:25:46;6.80;99.90
15916;DHT22;8057;47.830;-3.870;2024-01-15T16:29:56;6.90;99.90
15916;DHT22;8057;47.830;-3.870;2024-01-15T16:34:06;7.00;99.90
15916;DHT22;8057;47.830;-3.870;2024-01-15T16:38:18;7.00;99.90
15916;DHT22;8057;47.830;-3.870;2024-01-15T16:42:27;6.90;99.90
15916;DHT22;8057;47.830;-3.870;2024-01-15T16:46:36;6.80;99.90
15916;DHT22;8057;47.830;-3.870;2024-01-15T16:50:46;6.70;99.90
15916;DHT22;8057;47.830;-3.870;2024-01-15T16:54:55;6.60;99.90
15916;DHT22;8057;47.830;-3.870;2024-01-15T16:59:04;6.50;99.90
15916;DHT22;8057;47.830;-3.870;2024-01-15T17:03:13;6.50;99.90
15916;DHT22;8057;47.830;-3.870;2024-01-15T17:07:23;6.50;99.90
15916;DHT22;8057;47.830;-3.870;2024-01-15T17:11:32;6.50;99.90
15916;DHT22;8057;47.830;-3.870;2024-01-15T17:15:44;6.50;99.90
15916;DHT22;8057;47.830;-3.870;2024-01-15T17:19:54;6.50;99.90
15916;DHT22;8057;47.830;-3.870;2024-01-15T17:24:14;6.30;99.90
15916;DHT22;8057;47.830;-3.870;2024-01-15T17:28:53;6.20;99.90
15916;DHT22;8057;47.830;-3.870;2024-01-15T17:33:02;6.20;99.90
15916;DHT22;8057;47.830;-3.870;2024-01-15T17:37:11;6.20;99.90
15916;DHT22;8057;47.830;-3.870;2024-01-15T17:41:22;6.20;99.90
15916;DHT22;8057;47.830;-3.870;2024-01-15T17:45:31;6.20;99.90
15916;DHT22;8057;47.830;-3.870;2024-01-15T17:49:40;6.10;99.90
15916;DHT22;8057;47.830;-3.870;2024-01-15T17:53:49;5.90;99.90
15916;DHT22;8057;47.830;-3.870;2024-01-15T17:57:59;5.80;99.90
15916;DHT22;8057;47.830;-3.870;2024-01-15T18:02:08;5.90;99.90
15916;DHT22;8057;47.830;-3.870;2024-01-15T18:06:17;5.90;99.90
15916;DHT22;8057;47.830;-3.870;2024-01-15T18:10:26;5.90;99.90
15916;DHT22;8057;47.830;-3.870;2024-01-15T18:14:36;5.80;99.90
15916;DHT22;8057;47.830;-3.870;2024-01-15T18:18:46;5.70;99.90
15916;DHT22;8057;47.830;-3.870;2024-01-15T18:22:55;5.70;99.90
15916;DHT22;8057;47.830;-3.870;2024-01-15T18:27:04;5.70;99.90
15916;DHT22;8057;47.830;-3.870;2024-01-15T18:31:14;5.70;99.90
15916;DHT22;8057;47.830;-3.870;2024-01-15T18:35:23;5.70;99.90
15916;DHT22;8057;47.830;-3.870;2024-01-15T18:39:33;5.60;99.90
15916;DHT22;8057;47.830;-3.870;2024-01-15T18:43:42;5.50;99.90
15916;DHT22;8057;47.830;-3.870;2024-01-15T18:47:52;5.50;99.90
15916;DHT22;8057;47.830;-3.870;2024-01-15T18:52:02;5.50;99.90
15916;DHT22;8057;47.830;-3.870;2024-01-15T18:56:10;5.50;99.90
15916;DHT22;8057;47.830;-3.870;2024-01-15T19:00:20;5.50;99.90
15916;DHT22;8057;47.830;-3.870;2024-01-15T19:04:32;5.40;99.90
15916;DHT22;8057;47.830;-3.870;2024-01-15T19:08:42;5.50;99.90
15916;DHT22;8057;47.830;-3.870;2024-01-15T19:12:51;5.60;99.90
15916;DHT22;8057;47.830;-3.870;2024-01-15T19:17:00;5.60;99.90
15916;DHT22;8057;47.830;-3.870;2024-01-15T19:21:14;5.60;99.90
15916;DHT22;8057;47.830;-3.870;2024-01-15T19:25:22;5.40;99.90
15916;DHT22;8057;47.830;-3.870;2024-01-15T19:29:31;5.20;99.90
15916;DHT22;8057;47.830;-3.870;2024-01-15T19:33:40;5.10;99.90
15916;DHT22;8057;47.830;-3.870;2024-01-15T19:37:51;5.00;99.90
15916;DHT22;8057;47.830;-3.870;2024-01-15T19:42:00;4.80;99.90
15916;DHT22;8057;47.830;-3.870;2024-01-15T19:46:10;4.70;99.90
15916;DHT22;8057;47.830;-3.870;2024-01-15T19:50:20;4.50;99.90
15916;DHT22;8057;47.830;-3.870;2024-01-15T19:54:30;4.40;99.90
15916;DHT22;8057;47.830;-3.870;2024-01-15T19:58:39;4.40;99.90
15916;DHT22;8057;47.830;-3.870;2024-01-15T20:02:48;4.30;99.90
15916;DHT22;8057;47.830;-3.870;2024-01-15T20:06:57;4.30;99.90
15916;DHT22;8057;47.830;-3.870;2024-01-15T20:11:08;4.20;99.90
15916;DHT22;8057;47.830;-3.870;2024-01-15T20:15:16;4.00;99.90
15916;DHT22;8057;47.830;-3.870;2024-01-15T20:19:26;3.90;99.90
15916;DHT22;8057;47.830;-3.870;2024-01-15T20:23:37;4.00;99.90
15916;DHT22;8057;47.830;-3.870;2024-01-15T20:28:03;3.90;99.90
15916;DHT22;8057;47.830;-3.870;2024-01-15T20:32:13;3.80;99.90
15916;DHT22;8057;47.830;-3.870;2024-01-15T20:36:25;3.70;99.90
15916;DHT22;8057;47.830;-3.870;2024-01-15T20:40:34;3.50;99.90
15916;DHT22;8057;47.830;-3.870;2024-01-15T20:44:45;3.60;99.90
15916;DHT22;8057;47.830;-3.870;2024-01-15T20:48:54;3.60;99.90
15916;DHT22;8057;47.830;-3.870;2024-01-15T20:53:03;3.50;99.90
15916;DHT22;8057;47.830;-3.870;2024-01-15T20:57:12;3.40;99.90
15916;DHT22;8057;47.830;-3.870;2024-01-15T21:01:23;3.30;99.90
15916;DHT22;8057;47.830;-3.870;2024-01-15T21:05:32;3.30;99.90
15916;DHT22;8057;47.830;-3.870;2024-01-15T21:09:41;3.30;99.90
15916;DHT22;8057;47.830;-3.870;2024-01-15T21:13:50;3.20;99.90
15916;DHT22;8057;47.830;-3.870;2024-01-15T21:18:01;3.20;99.90
15916;DHT22;8057;47.830;-3.870;2024-01-15T21:22:10;3.10;99.90
15916;DHT22;8057;47.830;-3.870;2024-01-15T21:26:19;3.00;99.90
15916;DHT22;8057;47.830;-3.870;2024-01-15T21:30:28;3.00;99.90
15916;DHT22;8057;47.830;-3.870;2024-01-15T21:34:42;3.00;99.90
15916;DHT22;8057;47.830;-3.870;2024-01-15T21:38:51;3.00;99.90
15916;DHT22;8057;47.830;-3.870;2024-01-15T21:42:59;3.00;99.90
15916;DHT22;8057;47.830;-3.870;2024-01-15T21:47:08;2.90;99.90
15916;DHT22;8057;47.830;-3.870;2024-01-15T21:51:22;2.80;99.90
15916;DHT22;8057;47.830;-3.870;2024-01-15T21:55:31;2.80;99.90
15916;DHT22;8057;47.830;-3.870;2024-01-15T21:59:40;2.70;99.90
15916;DHT22;8057;47.830;-3.870;2024-01-15T22:03:49;2.80;99.90
15916;DHT22;8057;47.830;-3.870;2024-01-15T22:08:01;2.70;99.90
15916;DHT22;8057;47.830;-3.870;2024-01-15T22:12:10;2.60;99.90
15916;DHT22;8057;47.830;-3.870;2024-01-15T22:16:19;2.60;99.90
15916;DHT22;8057;47.830;-3.870;2024-01-15T22:20:28;2.70;99.90
15916;DHT22;8057;47.830;-3.870;2024-01-15T22:24:38;2.70;99.90
15916;DHT22;8057;47.830;-3.870;2024-01-15T22:28:48;2.50;99.90
15916;DHT22;8057;47.830;-3.870;2024-01-15T22:32:57;2.50;99.90
15916;DHT22;8057;47.830;-3.870;2024-01-15T22:37:05;2.50;99.90
15916;DHT22;8057;47.830;-3.870;2024-01-15T22:41:16;2.60;99.90
15916;DHT22;8057;47.830;-3.870;2024-01-15T22:45:25;2.50;99.90
15916;DHT22;8057;47.830;-3.870;2024-01-15T22:49:34;2.50;99.90
15916;DHT22;8057;47.830;-3.870;2024-01-15T22:53:43;2.40;99.90
15916;DHT22;8057;47.830;-3.870;2024-01-15T22:57:53;2.40;99.90
15916;DHT22;8057;47.830;-3.870;2024-01-15T23:02:02;2.40;99.90
15916;DHT22;8057;47.830;-3.870;2024-01-15T23:06:18;2.50;99.90
15916;DHT22;8057;47.830;-3.870;2024-01-15T23:10:27;2.50;99.90
15916;DHT22;8057;47.830;-3.870;2024-01-15T23:14:38;2.50;99.90
15916;DHT22;8057;47.830;-3.870;2024-01-15T23:18:47;2.40;99.90
15916;DHT22;8057;47.830;-3.870;2024-01-15T23:22:56;2.40;99.90
15916;DHT22;8057;47.830;-3.870;2024-01-15T23:27:05;2.50;99.90
15916;DHT22;8057;47.830;-3.870;2024-01-15T23:31:17;2.60;99.90
15916;DHT22;8057;47.830;-3.870;2024-01-15T23:35:26;2.60;99.90
15916;DHT22;8057;47.830;-3.870;2024-01-15T23:39:35;2.40;99.90
15916;DHT22;8057;47.830;-3.870;2024-01-15T23:43:43;2.40;99.90
15916;DHT22;8057;47.830;-3.870;2024-01-15T23:47:54;2.50;99.90
15916;DHT22;8057;47.830;-3.870;2024-01-15T23:52:03;2.50;99.90
15916;DHT22;8057;47.830;-3.870;2024-01-15T23:56:13;2.60;99.90
